createdAt,value
2023-05-08T00:01:30.807Z,85.24
2023-05-08T00:03:59.962Z,84.73
2023-05-08T00:06:30.384Z,84.50
2023-05-08T00:08:59.347Z,84.18
2023-05-08T00:11:28.482Z,84.26
2023-05-08T00:13:57.639Z,84.35
2023-05-08T00:16:26.677Z,83.72
2023-05-08T00:18:55.804Z,83.97
2023-05-08T00:21:24.893Z,83.48
2023-05-08T00:23:55.184Z,83.42
2023-05-08T00:26:24.191Z,83.27
2023-05-08T00:28:53.221Z,83.20
2023-05-08T00:31:22.202Z,83.29
2023-05-08T00:33:51.217Z,82.91
2023-05-08T00:36:20.637Z,83.71
2023-05-08T00:38:49.562Z,83.41
2023-05-08T00:41:20.583Z,83.76
2023-05-08T00:43:49.863Z,83.51
2023-05-08T00:46:19.036Z,83.84
2023-05-08T00:48:48.624Z,84.29
2023-05-08T00:51:17.814Z,84.59
2023-05-08T00:53:46.965Z,84.85
2023-05-08T00:56:18.313Z,84.96
2023-05-08T00:58:49.362Z,85.52
2023-05-08T01:01:18.691Z,85.77
2023-05-08T01:03:48.389Z,85.92
2023-05-08T01:06:17.556Z,86.24
2023-05-08T01:08:46.857Z,86.15
2023-05-08T01:11:23.570Z,86.42
2023-05-08T01:14:03.581Z,86.37
2023-05-08T01:16:40.310Z,86.20
2023-05-08T01:19:33.998Z,86.23
2023-05-08T01:22:11.754Z,85.65
2023-05-08T01:25:09.980Z,85.73
2023-05-08T01:28:14.380Z,86.41
2023-05-08T01:31:06.799Z,86.81
2023-05-08T01:33:44.268Z,86.62
2023-05-08T01:36:24.821Z,86.56
2023-05-08T01:39:02.886Z,85.41
2023-05-08T01:41:33.688Z,83.57
2023-05-08T01:44:12.012Z,82.33
2023-05-08T01:46:41.178Z,79.82
2023-05-08T01:49:14.391Z,78.43
2023-05-08T01:51:46.591Z,76.42
2023-05-08T01:54:18.860Z,75.17
2023-05-08T01:56:50.156Z,73.57
2023-05-08T01:59:23.335Z,72.30
2023-05-08T02:01:57.063Z,70.97
2023-05-08T02:04:28.918Z,69.79
2023-05-08T02:07:00.060Z,68.44
2023-05-08T02:09:31.001Z,67.49
2023-05-08T02:12:03.083Z,67.54
2023-05-08T02:14:33.497Z,67.19
2023-05-08T02:17:05.454Z,66.09
2023-05-08T02:19:37.688Z,64.95
2023-05-08T02:22:08.443Z,63.83
2023-05-08T02:24:39.649Z,63.17
2023-05-08T02:27:11.203Z,61.91
2023-05-08T02:29:40.721Z,60.62
2023-05-08T02:32:10.954Z,59.79
2023-05-08T02:34:51.192Z,58.99
2023-05-08T02:37:30.033Z,56.26
2023-05-08T02:40:00.516Z,54.56
2023-05-08T02:42:31.702Z,54.06
2023-05-08T02:45:01.045Z,53.07
2023-05-08T02:47:40.651Z,50.63
2023-05-08T02:50:18.375Z,49.76
2023-05-08T02:52:50.815Z,50.09
2023-05-08T02:55:34.432Z,53.91
2023-05-08T02:58:13.239Z,58.15
2023-05-08T03:00:48.800Z,60.17
2023-05-08T03:03:24.110Z,63.06
2023-05-08T03:05:56.257Z,65.24
2023-05-08T03:08:29.897Z,65.38
2023-05-08T03:11:02.644Z,65.11
2023-05-08T03:13:35.897Z,65.30
2023-05-08T03:16:11.349Z,65.38
2023-05-08T03:18:48.664Z,65.81
2023-05-08T03:21:21.039Z,65.91
2023-05-08T03:23:52.716Z,66.21
2023-05-08T03:26:22.482Z,65.86
2023-05-08T03:28:52.825Z,65.75
2023-05-08T03:31:27.071Z,64.80
2023-05-08T03:33:57.584Z,64.41
2023-05-08T03:36:29.018Z,63.97
2023-05-08T03:38:58.248Z,64.45
2023-05-08T03:41:27.743Z,64.15
2023-05-08T03:43:57.758Z,64.24
2023-05-08T03:46:27.690Z,63.84
2023-05-08T03:49:00.456Z,63.50
2023-05-08T03:51:32.469Z,63.36
2023-05-08T03:54:01.596Z,63.06
2023-05-08T03:56:30.583Z,63.32
2023-05-08T03:59:11.030Z,62.90
2023-05-08T04:01:41.802Z,62.48
2023-05-08T04:04:18.877Z,62.30
2023-05-08T04:06:57.871Z,62.53
2023-05-08T04:09:39.750Z,63.06
2023-05-08T04:12:15.067Z,63.31
2023-05-08T04:14:49.239Z,63.50
2023-05-08T04:17:29.429Z,63.28
2023-05-08T04:20:04.069Z,63.19
2023-05-08T04:22:39.917Z,63.09
2023-05-08T04:25:11.792Z,62.96
2023-05-08T04:27:41.967Z,62.88
2023-05-08T04:30:12.258Z,62.60
2023-05-08T04:32:44.246Z,62.29
2023-05-08T04:35:15.646Z,62.54
2023-05-08T04:37:47.615Z,62.17
2023-05-08T04:40:17.083Z,61.99
2023-05-08T04:42:47.902Z,61.67
2023-05-08T04:45:19.971Z,61.38
2023-05-08T04:47:49.323Z,61.32
2023-05-08T04:50:18.404Z,61.03
2023-05-08T04:52:48.961Z,60.54
2023-05-08T04:55:18.390Z,60.26
2023-05-08T04:57:49.248Z,59.77
2023-05-08T05:00:19.477Z,59.81
2023-05-08T05:02:49.244Z,59.36
2023-05-08T05:05:18.472Z,59.28
2023-05-08T05:07:48.908Z,58.79
2023-05-08T05:10:18.931Z,59.03
2023-05-08T05:12:48.773Z,58.33
2023-05-08T05:15:17.809Z,58.80
2023-05-08T05:17:47.006Z,58.58
2023-05-08T05:20:16.257Z,57.81
2023-05-08T05:22:46.064Z,57.33
2023-05-08T05:25:16.926Z,57.51
2023-05-08T05:27:46.641Z,56.95
2023-05-08T05:30:16.024Z,55.87
2023-05-08T05:32:45.682Z,56.50
2023-05-08T05:35:15.084Z,55.89
2023-05-08T05:37:44.291Z,54.92
2023-05-08T05:40:14.579Z,54.88
2023-05-08T05:42:50.305Z,54.00
2023-05-08T05:45:20.364Z,53.90
2023-05-08T05:47:50.818Z,53.91
2023-05-08T05:50:23.932Z,52.96
2023-05-08T05:52:53.300Z,52.45
2023-05-08T05:55:22.997Z,52.23
2023-05-08T05:57:53.741Z,51.38
2023-05-08T06:00:23.608Z,51.61
2023-05-08T06:02:57.513Z,51.64
2023-05-08T06:05:27.091Z,51.12
2023-05-08T06:07:56.082Z,50.87
2023-05-08T06:10:26.526Z,50.38
2023-05-08T06:12:57.266Z,49.79
2023-05-08T06:15:27.528Z,49.59
2023-05-08T06:17:57.168Z,49.66
2023-05-08T06:20:26.720Z,49.75
2023-05-08T06:22:55.954Z,48.95
2023-05-08T06:25:25.353Z,47.88
2023-05-08T06:27:54.439Z,47.86
2023-05-08T06:30:24.881Z,47.07
2023-05-08T06:32:53.963Z,47.23
2023-05-08T06:35:22.970Z,47.24
2023-05-08T06:37:52.001Z,46.83
2023-05-08T06:40:21.276Z,46.41
2023-05-08T06:42:50.390Z,45.42
2023-05-08T06:45:19.640Z,45.62
2023-05-08T06:47:50.202Z,45.37
2023-05-08T06:50:19.323Z,45.62
2023-05-08T06:52:48.312Z,45.48
2023-05-08T06:55:17.479Z,45.44
2023-05-08T06:57:46.483Z,45.34
2023-05-08T07:00:16.437Z,45.50
2023-05-08T07:02:45.478Z,44.54
2023-05-08T07:05:16.544Z,44.13
2023-05-08T07:07:46.215Z,42.88
2023-05-08T07:10:15.277Z,42.94
2023-05-08T07:12:44.542Z,43.89
2023-05-08T07:15:25.589Z,44.05
2023-05-08T07:17:55.551Z,44.60
2023-05-08T07:20:46.304Z,45.52
2023-05-08T07:23:15.302Z,45.35
2023-05-08T07:25:44.385Z,45.05
2023-05-08T07:28:13.384Z,43.89
2023-05-08T07:30:42.455Z,42.58
2023-05-08T07:33:11.619Z,40.56
2023-05-08T07:35:41.481Z,39.99
2023-05-08T07:38:30.509Z,39.92
2023-05-08T07:41:01.691Z,39.58
2023-05-08T07:43:49.181Z,38.51
2023-05-08T07:46:19.038Z,39.10
2023-05-08T07:49:07.210Z,40.99
2023-05-08T07:51:36.247Z,41.22
2023-05-08T07:54:06.939Z,41.03
2023-05-08T07:56:36.231Z,41.00
2023-05-08T07:59:05.420Z,41.54
2023-05-08T08:01:34.494Z,41.26
2023-05-08T08:04:03.661Z,40.92
2023-05-08T08:06:33.038Z,39.86
2023-05-08T08:09:02.056Z,40.01
2023-05-08T08:11:32.630Z,39.35
2023-05-08T08:14:01.653Z,39.32
2023-05-08T08:16:33.232Z,38.65
2023-05-08T08:19:02.315Z,38.74
2023-05-08T08:21:31.672Z,40.10
2023-05-08T08:24:00.904Z,40.57
2023-05-08T08:26:30.068Z,41.40
2023-05-08T08:29:19.196Z,41.66
2023-05-08T08:31:48.492Z,41.93
2023-05-08T08:34:17.577Z,42.08
2023-05-08T08:36:46.835Z,41.83
2023-05-08T08:39:15.947Z,41.43
2023-05-08T08:41:45.081Z,41.33
2023-05-08T08:44:14.164Z,40.41
2023-05-08T08:47:24.406Z,40.11
2023-05-08T08:49:54.790Z,39.49
2023-05-08T08:52:44.735Z,38.68
2023-05-08T08:55:17.342Z,38.44
2023-05-08T08:57:54.089Z,38.32
2023-05-08T09:00:29.743Z,37.89
2023-05-08T09:03:00.937Z,38.53
2023-05-08T09:05:49.516Z,38.38
2023-05-08T09:08:37.271Z,38.32
2023-05-08T09:11:06.496Z,37.72
2023-05-08T09:13:36.037Z,38.39
2023-05-08T09:16:05.561Z,38.59
2023-05-08T09:18:36.057Z,38.86
2023-05-08T09:21:07.770Z,39.19
2023-05-08T09:23:37.585Z,39.18
2023-05-08T09:26:06.667Z,39.09
2023-05-08T09:28:35.677Z,38.20
2023-05-08T09:31:04.862Z,37.01
2023-05-08T09:33:45.126Z,36.34
2023-05-08T09:36:28.195Z,36.23
2023-05-08T09:38:57.246Z,35.72
2023-05-08T09:41:26.885Z,35.17
2023-05-08T09:44:03.690Z,35.84
2023-05-08T09:46:34.163Z,36.09
2023-05-08T09:49:05.337Z,36.73
2023-05-08T09:51:34.380Z,37.74
2023-05-08T09:54:06.013Z,37.46
2023-05-08T09:56:37.232Z,38.09
2023-05-08T09:59:07.694Z,38.54
2023-05-08T10:01:39.842Z,38.39
2023-05-08T10:04:10.707Z,37.18
2023-05-08T10:06:39.960Z,36.73
2023-05-08T10:09:13.152Z,37.15
2023-05-08T10:11:43.587Z,37.81
2023-05-08T10:14:12.529Z,38.22
2023-05-08T10:16:45.237Z,38.14
2023-05-08T10:19:17.393Z,38.25
2023-05-08T10:21:49.555Z,37.29
2023-05-08T10:24:20.175Z,37.24
2023-05-08T10:27:06.834Z,37.35
2023-05-08T10:29:44.003Z,36.96
2023-05-08T10:32:14.667Z,36.42
2023-05-08T10:34:47.618Z,36.17
2023-05-08T10:37:17.528Z,35.66
2023-05-08T10:39:48.008Z,36.28
2023-05-08T10:42:17.249Z,36.45
2023-05-08T10:44:48.648Z,37.19
2023-05-08T10:47:24.588Z,37.11
2023-05-08T10:50:02.340Z,37.14
2023-05-08T10:52:40.598Z,37.21
2023-05-08T10:55:20.762Z,36.88
2023-05-08T10:58:11.938Z,36.76
2023-05-08T11:01:18.131Z,36.80
2023-05-08T11:03:50.936Z,36.34
2023-05-08T11:06:45.933Z,36.71
2023-05-08T11:09:23.259Z,36.49
2023-05-08T11:12:08.464Z,36.34
2023-05-08T11:14:43.458Z,35.78
2023-05-08T11:17:12.670Z,35.91
2023-05-08T11:19:58.006Z,34.94
2023-05-08T11:22:30.448Z,35.18
2023-05-08T11:25:01.843Z,35.07
2023-05-08T11:27:42.744Z,34.47
2023-05-08T11:30:26.050Z,34.00
2023-05-08T11:33:19.058Z,34.45
2023-05-08T11:35:50.724Z,35.93
2023-05-08T11:38:23.662Z,36.07
2023-05-08T11:41:04.304Z,36.18
2023-05-08T11:43:58.380Z,36.43
2023-05-08T11:46:51.341Z,36.69
2023-05-08T11:49:25.461Z,36.74
2023-05-08T11:51:59.860Z,36.49
2023-05-08T11:54:33.142Z,36.20
2023-05-08T11:57:02.562Z,35.88
2023-05-08T11:59:37.027Z,35.97
2023-05-08T12:02:09.595Z,35.85
2023-05-08T12:04:46.800Z,35.64
2023-05-08T12:07:16.660Z,34.81
2023-05-08T12:09:47.716Z,35.46
2023-05-08T12:12:16.972Z,35.37
2023-05-08T12:14:45.952Z,35.30
2023-05-08T12:17:19.159Z,35.03
2023-05-08T12:19:48.282Z,35.09
2023-05-08T12:22:17.556Z,35.84
2023-05-08T12:24:47.928Z,35.73
2023-05-08T12:27:17.064Z,35.79
2023-05-08T12:29:46.760Z,36.39
2023-05-08T12:32:15.961Z,36.10
2023-05-08T12:34:45.124Z,35.50
2023-05-08T12:37:25.424Z,35.57
2023-05-08T12:39:56.043Z,35.60
2023-05-08T12:42:42.931Z,34.92
2023-05-08T12:45:18.771Z,35.16
2023-05-08T12:47:49.197Z,34.92
2023-05-08T12:50:21.208Z,34.32
2023-05-08T12:52:52.081Z,34.83
2023-05-08T12:55:25.305Z,33.87
2023-05-08T12:58:01.689Z,33.17
2023-05-08T13:00:41.496Z,33.43
2023-05-08T13:03:13.059Z,32.62
2023-05-08T13:05:43.819Z,31.56
2023-05-08T13:08:12.903Z,31.88
2023-05-08T13:10:47.302Z,31.57
2023-05-08T13:13:17.569Z,33.26
2023-05-08T13:15:47.698Z,33.89
2023-05-08T13:18:17.415Z,34.61
2023-05-08T13:20:46.534Z,34.87
2023-05-08T13:23:15.591Z,35.43
2023-05-08T13:25:44.599Z,35.68
2023-05-08T13:28:15.046Z,35.62
2023-05-08T13:30:44.089Z,35.44
2023-05-08T13:33:13.067Z,35.79
2023-05-08T13:35:42.228Z,36.25
2023-05-08T13:38:11.211Z,36.69
2023-05-08T13:40:40.448Z,36.35
2023-05-08T13:43:09.438Z,36.76
2023-05-08T13:45:40.055Z,36.80
2023-05-08T13:48:09.140Z,36.66
2023-05-08T13:50:38.328Z,36.72
2023-05-08T13:53:07.382Z,36.77
2023-05-08T13:55:37.863Z,36.85
2023-05-08T13:58:08.229Z,36.78
2023-05-08T14:00:37.569Z,37.00
2023-05-08T14:03:09.547Z,36.43
2023-05-08T14:05:38.600Z,37.26
2023-05-08T14:08:07.720Z,37.30
2023-05-08T14:10:36.884Z,37.48
2023-05-08T14:13:06.081Z,37.02
2023-05-08T14:15:37.288Z,37.67
2023-05-08T14:18:08.693Z,37.78
2023-05-08T14:20:37.806Z,37.71
2023-05-08T14:23:08.639Z,37.87
2023-05-08T14:25:38.079Z,38.05
2023-05-08T14:28:07.122Z,37.91
2023-05-08T14:30:36.270Z,38.15
2023-05-08T14:33:05.871Z,38.08
2023-05-08T14:35:36.506Z,38.25
2023-05-08T14:38:05.720Z,38.26
2023-05-08T14:40:35.101Z,38.13
2023-05-08T14:43:04.121Z,38.05
2023-05-08T14:45:33.594Z,37.79
2023-05-08T14:48:02.772Z,38.02
2023-05-08T14:50:32.016Z,37.98
2023-05-08T14:53:02.803Z,37.75
2023-05-08T14:55:33.190Z,37.92
2023-05-08T14:58:02.538Z,37.30
2023-05-08T15:00:31.683Z,37.02
2023-05-08T15:03:00.843Z,37.32
2023-05-08T15:05:30.432Z,37.40
2023-05-08T15:07:59.759Z,37.39
2023-05-08T15:10:30.554Z,37.23
2023-05-08T15:12:59.952Z,37.21
2023-05-08T15:15:29.253Z,36.55
2023-05-08T15:17:58.306Z,36.87
2023-05-08T15:20:27.392Z,37.46
2023-05-08T15:22:56.476Z,37.56
2023-05-08T15:25:25.912Z,37.80
2023-05-08T15:27:58.218Z,37.90
2023-05-08T15:30:27.555Z,38.12
2023-05-08T15:32:56.616Z,38.29
2023-05-08T15:35:25.752Z,38.48
2023-05-08T15:37:54.802Z,38.61
2023-05-08T15:40:23.878Z,38.54
2023-05-08T15:42:52.901Z,38.65
2023-05-08T15:45:23.605Z,38.94
2023-05-08T15:47:52.735Z,39.11
2023-05-08T15:50:22.454Z,39.51
2023-05-08T15:52:51.801Z,39.64
2023-05-08T15:55:21.452Z,39.78
2023-05-08T15:57:51.733Z,40.15
2023-05-08T16:00:25.091Z,40.11
2023-05-08T16:02:56.695Z,39.98
2023-05-08T16:05:25.913Z,40.09
2023-05-08T16:07:55.763Z,39.94
2023-05-08T16:10:25.256Z,40.37
2023-05-08T16:12:54.380Z,40.15
2023-05-08T16:15:24.869Z,39.76
2023-05-08T16:17:54.068Z,39.75
2023-05-08T16:20:23.567Z,39.87
2023-05-08T16:22:55.164Z,39.93
2023-05-08T16:25:25.037Z,40.25
2023-05-08T16:27:54.036Z,40.12
2023-05-08T16:30:24.517Z,40.07
2023-05-08T16:32:53.643Z,40.22
2023-05-08T16:35:23.195Z,40.51
2023-05-08T16:37:52.289Z,40.17
2023-05-08T16:40:21.492Z,40.32
2023-05-08T16:42:51.132Z,40.79
2023-05-08T16:45:20.283Z,41.66
2023-05-08T16:47:50.979Z,41.48
2023-05-08T16:50:20.143Z,41.70
2023-05-08T16:52:49.117Z,42.23
2023-05-08T16:55:18.305Z,42.62
2023-05-08T16:57:47.383Z,42.64
2023-05-08T17:00:17.290Z,42.95
2023-05-08T17:02:46.404Z,43.11
2023-05-08T17:05:16.918Z,43.42
2023-05-08T17:07:45.991Z,44.02
2023-05-08T17:10:15.401Z,44.80
2023-05-08T17:12:44.569Z,44.85
2023-05-08T17:15:13.994Z,45.02
2023-05-08T17:17:43.694Z,44.81
2023-05-08T17:20:14.275Z,45.06
2023-05-08T17:22:45.093Z,45.29
2023-05-08T17:25:16.363Z,45.26
2023-05-08T17:27:45.452Z,45.48
2023-05-08T17:30:17.097Z,45.55
2023-05-08T17:32:51.810Z,45.91
2023-05-08T17:35:21.584Z,46.35
2023-05-08T17:37:52.094Z,46.39
2023-05-08T17:40:21.239Z,46.32
2023-05-08T17:42:50.502Z,46.54
2023-05-08T17:45:19.569Z,46.70
2023-05-08T17:47:48.688Z,46.90
2023-05-08T17:50:18.142Z,47.85
2023-05-08T17:52:47.252Z,48.24
2023-05-08T17:55:17.792Z,48.24
2023-05-08T17:57:50.951Z,49.18
2023-05-08T18:00:20.552Z,50.24
2023-05-08T18:02:49.794Z,51.09
2023-05-08T18:05:19.536Z,51.61
2023-05-08T18:07:48.472Z,52.03
2023-05-08T18:10:18.927Z,53.07
2023-05-08T18:12:48.876Z,53.21
2023-05-08T18:15:17.964Z,53.10
2023-05-08T18:17:47.148Z,52.78
2023-05-08T18:20:16.339Z,52.62
2023-05-08T18:22:46.040Z,52.44
2023-05-08T18:25:15.495Z,51.87
2023-05-08T18:27:48.746Z,51.62
2023-05-08T18:30:19.392Z,51.76
2023-05-08T18:32:48.556Z,51.63
2023-05-08T18:35:18.077Z,51.65
2023-05-08T18:37:47.304Z,51.74
2023-05-08T18:40:16.644Z,51.56
2023-05-08T18:42:47.157Z,52.07
2023-05-08T18:45:16.769Z,52.04
2023-05-08T18:47:45.797Z,51.85
2023-05-08T18:50:15.250Z,52.11
2023-05-08T18:52:44.743Z,52.08
2023-05-08T18:55:13.768Z,52.38
2023-05-08T18:57:42.799Z,52.17
2023-05-08T19:00:16.260Z,52.50
2023-05-08T19:02:48.436Z,52.35
2023-05-08T19:05:18.020Z,52.52
2023-05-08T19:07:47.083Z,53.05
2023-05-08T19:10:16.463Z,53.17
2023-05-08T19:12:45.745Z,53.51
2023-05-08T19:15:16.435Z,53.58
2023-05-08T19:17:45.522Z,53.01
2023-05-08T19:20:15.794Z,52.77
2023-05-08T19:22:46.914Z,52.71
2023-05-08T19:25:16.579Z,53.18
2023-05-08T19:27:45.985Z,53.31
2023-05-08T19:30:16.915Z,53.57
2023-05-08T19:32:46.610Z,54.12
2023-05-08T19:35:15.778Z,53.84
2023-05-08T19:37:45.209Z,53.64
2023-05-08T19:40:16.369Z,54.09
2023-05-08T19:42:45.965Z,53.42
2023-05-08T19:45:17.051Z,53.42
2023-05-08T19:47:49.290Z,53.28
2023-05-08T19:50:19.017Z,53.67
2023-05-08T19:52:48.884Z,53.61
2023-05-08T19:55:18.458Z,53.79
2023-05-08T19:57:47.505Z,53.88
2023-05-08T20:00:18.292Z,53.88
2023-05-08T20:02:47.397Z,53.97
2023-05-08T20:05:22.385Z,53.56
2023-05-08T20:07:52.681Z,53.57
2023-05-08T20:10:21.985Z,54.06
2023-05-08T20:12:51.178Z,54.13
2023-05-08T20:15:21.641Z,54.04
2023-05-08T20:17:50.947Z,54.35
2023-05-08T20:20:20.222Z,54.10
2023-05-08T20:22:49.338Z,53.80
2023-05-08T20:25:18.305Z,53.79
2023-05-08T20:27:48.787Z,53.96
2023-05-08T20:30:18.000Z,53.57
2023-05-08T20:32:48.469Z,54.05
2023-05-08T20:35:17.605Z,54.66
2023-05-08T20:37:47.684Z,55.14
2023-05-08T20:40:17.059Z,55.14
2023-05-08T20:42:46.242Z,55.02
2023-05-08T20:45:15.391Z,54.83
2023-05-08T20:47:44.551Z,54.44
2023-05-08T20:50:16.532Z,54.34
2023-05-08T20:52:45.728Z,54.51
2023-05-08T20:55:14.930Z,55.00
2023-05-08T20:57:44.161Z,55.02
2023-05-08T21:00:14.186Z,55.18
2023-05-08T21:02:43.741Z,55.62
2023-05-08T21:05:14.660Z,56.44
2023-05-08T21:07:43.888Z,56.75
2023-05-08T21:10:13.982Z,57.34
2023-05-08T21:12:45.624Z,58.78
2023-05-08T21:15:14.874Z,58.50
2023-05-08T21:17:44.158Z,58.59
2023-05-08T21:20:15.311Z,58.98
2023-05-08T21:22:46.402Z,58.22
2023-05-08T21:25:18.898Z,58.63
2023-05-08T21:27:49.292Z,59.41
2023-05-08T21:30:18.477Z,58.71
2023-05-08T21:32:47.716Z,58.04
2023-05-08T21:35:18.262Z,57.67
2023-05-08T21:37:47.307Z,57.98
2023-05-08T21:40:16.265Z,57.13
2023-05-08T21:42:45.187Z,56.96
2023-05-08T21:45:14.412Z,56.29
2023-05-08T21:47:44.017Z,56.84
2023-05-08T21:50:13.235Z,57.02
2023-05-08T21:52:43.697Z,56.72
2023-05-08T21:55:12.996Z,56.65
2023-05-08T21:57:42.251Z,56.95
2023-05-08T22:00:12.311Z,57.07
2023-05-08T22:02:49.650Z,57.86
2023-05-08T22:05:18.822Z,57.57
2023-05-08T22:07:49.193Z,57.56
2023-05-08T22:10:18.358Z,57.64
2023-05-08T22:12:48.011Z,57.99
2023-05-08T22:15:29.079Z,58.62
2023-05-08T22:17:59.678Z,58.32
2023-05-08T22:20:28.794Z,58.41
2023-05-08T22:22:59.273Z,59.50
2023-05-08T22:25:28.589Z,60.22
2023-05-08T22:27:57.670Z,60.46
2023-05-08T22:30:26.803Z,60.72
2023-05-08T22:32:57.508Z,60.54
2023-05-08T22:35:28.466Z,60.58
2023-05-08T22:37:58.982Z,60.83
2023-05-08T22:40:29.842Z,60.75
2023-05-08T22:43:00.273Z,60.95
2023-05-08T22:45:29.485Z,61.04
2023-05-08T22:47:59.005Z,60.88
2023-05-08T22:50:28.063Z,61.14
2023-05-08T22:52:58.728Z,61.24
2023-05-08T22:55:27.703Z,60.90
2023-05-08T22:57:56.781Z,60.95
2023-05-08T23:00:25.732Z,60.75
2023-05-08T23:02:54.780Z,61.13
2023-05-08T23:05:24.065Z,60.81
2023-05-08T23:07:52.987Z,60.12
2023-05-08T23:10:23.588Z,59.34
2023-05-08T23:12:52.634Z,59.02
2023-05-08T23:15:22.263Z,59.57
2023-05-08T23:17:51.621Z,58.95
2023-05-08T23:20:20.733Z,58.84
2023-05-08T23:22:49.686Z,59.18
2023-05-08T23:25:18.718Z,59.30
2023-05-08T23:27:49.006Z,59.66
2023-05-08T23:30:18.044Z,60.06
2023-05-08T23:32:47.488Z,61.04
2023-05-08T23:35:16.711Z,61.25
2023-05-08T23:37:45.817Z,61.74
2023-05-08T23:40:14.871Z,61.93
2023-05-08T23:42:43.806Z,62.47
2023-05-08T23:45:14.352Z,62.25
2023-05-08T23:47:43.442Z,62.81
2023-05-08T23:50:13.525Z,64.29
2023-05-08T23:52:42.953Z,64.45
2023-05-08T23:55:12.642Z,64.43
2023-05-08T23:57:41.889Z,65.56
